Time,TemperatureF,DewpointF,PressureIn,WindDirection,WindDirectionDegrees,WindSpeedMPH,WindSpeedGustMPH,Humidity,HourlyPrecipIn,Conditions,Clouds,dailyrainin,SoftwareType,DateUTC
2013-07-16 00:04:00,75.0,71.2,29.17,East,90,0.0,0.0,88,0.00,,---,0.00,VWS V14.00,2013-07-16 04:04:00,
2013-07-16 00:07:00,75.0,71.6,29.17,East,90,0.0,0.0,89,0.00,,---,0.00,VWS V14.00,2013-07-16 04:07:00,
2013-07-16 00:13:00,75.0,71.6,29.17,East,90,0.0,0.0,89,0.00,,---,0.00,VWS V14.00,2013-07-16 04:13:00,
2013-07-16 00:19:00,75.0,71.2,29.17,East,90,0.0,0.0,88,0.00,,---,0.00,VWS V14.00,2013-07-16 04:19:00,
2013-07-16 00:25:00,75.0,71.2,29.17,East,90,0.0,0.0,88,0.00,,---,0.00,VWS V14.00,2013-07-16 04:25:00,
2013-07-16 00:31:00,75.0,71.2,29.17,East,90,0.0,0.0,88,0.00,,---,0.00,VWS V14.00,2013-07-16 04:31:00,
2013-07-16 00:37:00,74.8,71.1,29.17,East,90,0.0,0.0,88,0.00,,---,0.00,VWS V14.00,2013-07-16 04:37:00,
2013-07-16 00:43:00,74.7,71.2,29.17,East,90,0.0,0.0,89,0.00,,---,0.00,VWS V14.00,2013-07-16 04:43:00,
2013-07-16 00:49:00,74.7,71.2,29.17,East,90,0.0,0.0,89,0.00,,---,0.00,VWS V14.00,2013-07-16 04:49:00,
2013-07-16 00:55:00,74.5,71.0,29.17,East,90,0.0,0.0,89,0.00,,---,0.00,VWS V14.00,2013-07-16 04:55:00,
2013-07-16 01:00:00,74.5,71.0,29.17,East,90,0.0,0.0,89,0.00,,---,0.00,VWS V14.00,2013-07-16 05:00:00,
2013-07-16 01:07:00,74.3,70.8,29.17,East,90,0.0,0.0,89,0.00,,---,0.00,VWS V14.00,2013-07-16 05:07:00,
2013-07-16 01:13:00,74.3,70.8,29.17,East,90,0.0,0.0,89,0.00,,---,0.00,VWS V14.00,2013-07-16 05:13:00,
2013-07-16 01:19:00,74.3,70.8,29.17,East,90,0.0,0.0,89,0.00,,---,0.00,VWS V14.00,2013-07-16 05:19:00,
2013-07-16 01:25:00,74.1,70.7,29.17,East,90,0.0,0.0,89,0.00,,---,0.00,VWS V14.00,2013-07-16 05:25:00,
2013-07-16 01:31:00,74.1,70.7,29.17,East,90,0.0,0.0,89,0.00,,---,0.00,VWS V14.00,2013-07-16 05:31:00,
2013-07-16 01:37:00,73.9,70.5,29.17,East,90,0.0,0.0,89,0.00,,---,0.00,VWS V14.00,2013-07-16 05:37:00,
2013-07-16 01:43:00,73.9,70.5,29.17,East,90,0.0,0.0,89,0.00,,---,0.00,VWS V14.00,2013-07-16 05:43:00,
2013-07-16 01:49:00,73.9,70.5,29.17,East,90,0.0,0.0,89,0.00,,---,0.00,VWS V14.00,2013-07-16 05:49:00,
2013-07-16 01:55:00,73.9,70.5,29.17,East,90,0.0,0.0,89,0.00,,---,0.00,VWS V14.00,2013-07-16 05:55:00,
2013-07-16 02:01:00,73.8,70.3,29.17,East,90,0.0,0.0,89,0.00,,---,0.00,VWS V14.00,2013-07-16 06:01:00,
2013-07-16 02:07:00,73.8,70.3,29.17,East,90,0.0,0.0,89,0.00,,---,0.00,VWS V14.00,2013-07-16 06:07:00,
2013-07-16 02:13:00,73.6,70.1,29.17,East,90,0.0,0.0,89,0.00,,---,0.00,VWS V14.00,2013-07-16 06:13:00,
2013-07-16 02:19:00,73.6,70.1,29.17,East,90,0.0,0.0,89,0.00,,---,0.00,VWS V14.00,2013-07-16 06:19:00,
2013-07-16 02:25:00,73.6,70.1,29.17,East,90,0.0,0.0,89,0.00,,---,0.00,VWS V14.00,2013-07-16 06:25:00,
2013-07-16 02:31:00,73.4,70.0,29.17,East,90,0.0,0.0,89,0.00,,---,0.00,VWS V14.00,2013-07-16 06:31:00,
2013-07-16 02:37:00,73.4,70.0,29.17,East,90,0.0,0.0,89,0.00,,---,0.00,VWS V14.00,2013-07-16 06:37:00,
2013-07-16 02:43:00,73.2,70.1,29.17,East,90,0.0,0.0,90,0.00,,---,0.00,VWS V14.00,2013-07-16 06:43:00,
2013-07-16 02:49:00,73.2,70.1,29.17,East,90,0.0,0.0,90,0.00,,---,0.00,VWS V14.00,2013-07-16 06:49:00,
2013-07-16 02:55:00,73.2,70.1,29.17,East,90,0.0,0.0,90,0.00,,---,0.00,VWS V14.00,2013-07-16 06:55:00,
2013-07-16 03:01:00,73.0,69.9,29.17,East,90,0.0,0.0,90,0.00,,---,0.00,VWS V14.00,2013-07-16 07:01:00,
2013-07-16 03:07:00,73.0,69.9,29.17,East,90,0.0,0.0,90,0.00,,---,0.00,VWS V14.00,2013-07-16 07:07:00,
2013-07-16 03:13:00,72.9,69.8,29.17,East,90,0.0,0.0,90,0.00,,---,0.00,VWS V14.00,2013-07-16 07:13:00,
2013-07-16 03:19:00,72.7,69.6,29.14,East,90,0.0,0.0,90,0.00,,---,0.00,VWS V14.00,2013-07-16 07:19:00,
2013-07-16 03:25:00,72.7,69.6,29.14,East,90,0.0,0.0,90,0.00,,---,0.00,VWS V14.00,2013-07-16 07:25:00,
2013-07-16 03:31:00,72.7,69.6,29.14,East,90,0.0,0.0,90,0.00,,---,0.00,VWS V14.00,2013-07-16 07:31:00,
2013-07-16 03:37:00,72.7,69.6,29.14,East,90,0.0,0.0,90,0.00,,---,0.00,VWS V14.00,2013-07-16 07:37:00,
2013-07-16 03:43:00,72.7,69.6,29.14,East,90,0.0,0.0,90,0.00,,---,0.00,VWS V14.00,2013-07-16 07:43:00,
2013-07-16 03:49:00,72.5,69.4,29.14,East,90,0.0,0.0,90,0.00,,---,0.00,VWS V14.00,2013-07-16 07:49:00,
2013-07-16 03:55:00,72.5,69.4,29.14,East,90,0.0,0.0,90,0.00,,---,0.00,VWS V14.00,2013-07-16 07:55:00,
2013-07-16 04:01:00,72.5,69.4,29.14,East,90,0.0,0.0,90,0.00,,---,0.00,VWS V14.00,2013-07-16 08:01:00,
2013-07-16 04:07:00,72.5,69.4,29.14,East,90,0.0,0.0,90,0.00,,---,0.00,VWS V14.00,2013-07-16 08:07:00,
2013-07-16 04:13:00,72.3,69.2,29.14,East,90,0.0,0.0,90,0.00,,---,0.00,VWS V14.00,2013-07-16 08:13:00,
2013-07-16 04:20:00,72.3,69.2,29.14,East,90,0.0,0.0,90,0.00,,---,0.00,VWS V14.00,2013-07-16 08:20:00,
2013-07-16 04:26:00,72.3,69.2,29.14,East,90,0.0,0.0,90,0.00,,---,0.00,VWS V14.00,2013-07-16 08:26:00,
2013-07-16 04:32:00,72.1,69.1,29.14,East,90,0.0,0.0,90,0.00,,---,0.00,VWS V14.00,2013-07-16 08:32:00,
2013-07-16 04:38:00,72.1,69.4,29.14,East,90,0.0,0.0,91,0.00,,---,0.00,VWS V14.00,2013-07-16 08:38:00,
2013-07-16 04:44:00,72.1,69.4,29.14,East,90,0.0,0.0,91,0.00,,---,0.00,VWS V14.00,2013-07-16 08:44:00,
2013-07-16 04:50:00,72.1,69.4,29.14,East,90,0.0,0.0,91,0.00,,---,0.00,VWS V14.00,2013-07-16 08:50:00,
2013-07-16 04:56:00,72.0,69.2,29.14,East,90,0.0,0.0,91,0.00,,---,0.00,VWS V14.00,2013-07-16 08:56:00,
2013-07-16 05:02:00,72.0,68.9,29.14,East,90,0.0,0.0,90,0.00,,---,0.00,VWS V14.00,2013-07-16 09:02:00,
2013-07-16 05:08:00,72.0,68.9,29.14,East,90,0.0,0.0,90,0.00,,---,0.00,VWS V14.00,2013-07-16 09:08:00,
2013-07-16 05:14:00,72.0,69.2,29.14,East,90,0.0,0.0,91,0.00,,---,0.00,VWS V14.00,2013-07-16 09:14:00,
2013-07-16 05:20:00,72.0,69.2,29.14,East,90,0.0,0.0,91,0.00,,---,0.00,VWS V14.00,2013-07-16 09:20:00,
2013-07-16 05:26:00,72.0,69.2,29.14,East,90,0.0,0.0,91,0.00,,---,0.00,VWS V14.00,2013-07-16 09:26:00,
2013-07-16 05:32:00,72.0,69.2,29.14,East,90,0.0,0.0,91,0.00,,---,0.00,VWS V14.00,2013-07-16 09:32:00,
2013-07-16 05:38:00,72.0,69.5,29.14,East,90,0.0,0.0,92,0.00,,---,0.00,VWS V14.00,2013-07-16 09:38:00,
2013-07-16 05:44:00,72.0,69.5,29.14,East,90,0.0,0.0,92,0.00,,---,0.00,VWS V14.00,2013-07-16 09:44:00,
2013-07-16 05:50:00,72.0,69.5,29.14,East,90,0.0,0.0,92,0.00,,---,0.00,VWS V14.00,2013-07-16 09:50:00,
2013-07-16 05:56:00,72.0,69.8,29.14,East,90,0.0,0.0,93,0.00,,---,0.00,VWS V14.00,2013-07-16 09:56:00,
2013-07-16 06:02:00,72.0,69.8,29.14,East,90,0.0,0.0,93,0.00,,---,0.00,VWS V14.00,2013-07-16 10:02:00,
2013-07-16 06:08:00,72.0,69.8,29.14,East,90,0.0,0.0,93,0.00,,---,0.00,VWS V14.00,2013-07-16 10:08:00,
2013-07-16 06:14:00,72.0,69.8,29.14,East,90,0.0,0.0,93,0.00,,---,0.00,VWS V14.00,2013-07-16 10:14:00,
2013-07-16 06:20:00,72.0,69.8,29.17,East,90,0.0,0.0,93,0.00,,---,0.00,VWS V14.00,2013-07-16 10:20:00,
2013-07-16 06:26:00,72.0,69.8,29.17,East,90,0.0,0.0,93,0.00,,---,0.00,VWS V14.00,2013-07-16 10:26:00,
2013-07-16 06:32:00,71.8,69.7,29.17,East,90,0.0,0.0,93,0.00,,---,0.00,VWS V14.00,2013-07-16 10:32:00,
2013-07-16 06:38:00,71.8,69.7,29.17,East,90,0.0,0.0,93,0.00,,---,0.00,VWS V14.00,2013-07-16 10:38:00,
2013-07-16 06:44:00,71.8,69.7,29.17,East,90,0.0,0.0,93,0.00,,---,0.00,VWS V14.00,2013-07-16 10:44:00,
2013-07-16 06:50:00,71.8,69.7,29.17,East,90,0.0,0.0,93,0.00,,---,0.00,VWS V14.00,2013-07-16 10:50:00,
2013-07-16 06:56:00,71.8,69.7,29.17,East,90,0.0,0.0,93,0.00,,---,0.00,VWS V14.00,2013-07-16 10:56:00,
2013-07-16 07:02:00,71.8,69.7,29.17,East,90,0.0,0.0,93,0.00,,---,0.00,VWS V14.00,2013-07-16 11:02:00,
2013-07-16 07:08:00,71.8,69.7,29.17,East,90,0.0,0.0,93,0.00,,---,0.00,VWS V14.00,2013-07-16 11:08:00,
2013-07-16 07:14:00,72.0,69.8,29.17,East,90,0.0,0.0,93,0.00,,---,0.00,VWS V14.00,2013-07-16 11:14:00,
2013-07-16 07:20:00,72.1,70.3,29.17,East,90,0.0,0.0,94,0.00,,---,0.00,VWS V14.00,2013-07-16 11:20:00,
2013-07-16 07:26:00,72.1,70.3,29.17,East,90,0.0,0.0,94,0.00,,---,0.00,VWS V14.00,2013-07-16 11:26:00,
2013-07-16 07:32:00,72.3,70.5,29.17,East,90,0.0,0.0,94,0.00,,---,0.00,VWS V14.00,2013-07-16 11:32:00,
2013-07-16 07:38:00,72.3,70.5,29.17,East,90,0.0,0.0,94,0.00,,---,0.00,VWS V14.00,2013-07-16 11:38:00,
2013-07-16 07:44:00,72.5,70.7,29.17,East,90,0.0,0.0,94,0.00,,---,0.00,VWS V14.00,2013-07-16 11:44:00,
2013-07-16 07:50:00,72.7,70.9,29.17,East,90,0.0,0.0,94,0.00,,---,0.00,VWS V14.00,2013-07-16 11:50:00,
2013-07-16 07:56:00,73.0,71.2,29.17,East,90,0.0,0.0,94,0.00,,---,0.00,VWS V14.00,2013-07-16 11:56:00,
2013-07-16 08:02:00,73.2,71.4,29.17,East,90,0.0,0.0,94,0.00,,---,0.00,VWS V14.00,2013-07-16 12:02:00,
2013-07-16 08:08:00,73.6,71.8,29.17,East,90,0.0,0.0,94,0.00,,---,0.00,VWS V14.00,2013-07-16 12:08:00,
2013-07-16 08:14:00,73.9,72.1,29.17,East,90,0.0,0.0,94,0.00,,---,0.00,VWS V14.00,2013-07-16 12:14:00,
2013-07-16 08:20:00,74.7,72.8,29.17,East,90,0.0,0.0,94,0.00,,---,0.00,VWS V14.00,2013-07-16 12:20:00,
2013-07-16 08:26:00,75.0,73.2,29.17,East,90,0.0,0.0,94,0.00,,---,0.00,VWS V14.00,2013-07-16 12:26:00,
2013-07-16 08:32:00,75.7,73.9,29.17,East,90,0.0,0.0,94,0.00,,---,0.00,VWS V14.00,2013-07-16 12:32:00,
2013-07-16 08:38:00,76.5,74.3,29.17,East,90,0.0,0.0,93,0.00,,---,0.00,VWS V14.00,2013-07-16 12:38:00,
2013-07-16 08:44:00,77.0,72.8,29.17,East,90,0.0,0.0,87,0.00,,---,0.00,VWS V14.00,2013-07-16 12:44:00,
2013-07-16 08:50:00,77.7,73.2,29.17,East,90,0.0,0.0,86,0.00,,---,0.00,VWS V14.00,2013-07-16 12:50:00,
2013-07-16 08:56:00,78.3,74.1,29.17,WNW,292,0.0,0.0,87,0.00,,---,0.00,VWS V14.00,2013-07-16 12:56:00,
2013-07-16 09:02:00,79.0,74.8,29.20,West,270,0.0,0.0,87,0.00,,---,0.00,VWS V14.00,2013-07-16 13:02:00,
2013-07-16 09:09:00,79.3,74.8,29.20,West,270,0.0,0.0,86,0.00,,---,0.00,VWS V14.00,2013-07-16 13:09:00,
2013-07-16 09:15:00,79.9,75.0,29.20,West,270,0.0,0.0,85,0.00,,---,0.00,VWS V14.00,2013-07-16 13:15:00,
2013-07-16 09:21:00,80.2,75.3,29.20,WNW,292,0.0,0.0,85,0.00,,---,0.00,VWS V14.00,2013-07-16 13:21:00,
2013-07-16 09:27:00,80.8,75.1,29.20,South,180,0.0,0.0,83,0.00,,---,0.00,VWS V14.00,2013-07-16 13:27:00,
2013-07-16 09:33:00,81.1,74.8,29.17,West,270,0.0,0.0,81,0.00,,---,0.00,VWS V14.00,2013-07-16 13:33:00,
2013-07-16 09:39:00,81.5,74.7,29.17,WNW,292,0.0,0.0,80,0.00,,---,0.00,VWS V14.00,2013-07-16 13:39:00,
2013-07-16 09:45:00,81.9,75.5,29.17,SW,225,0.0,0.0,81,0.00,,---,0.00,VWS V14.00,2013-07-16 13:45:00,
2013-07-16 09:51:00,82.2,75.1,29.17,SE,135,0.0,1.6,79,0.00,,---,0.00,VWS V14.00,2013-07-16 13:51:00,
2013-07-16 09:57:00,82.4,74.9,29.17,SE,135,0.0,1.6,78,0.00,,---,0.00,VWS V14.00,2013-07-16 13:57:00,
2013-07-16 10:03:00,82.9,75.0,29.17,WNW,292,0.0,0.0,77,0.00,,---,0.00,VWS V14.00,2013-07-16 14:03:00,
2013-07-16 10:09:00,83.3,75.3,29.17,WNW,292,0.0,0.0,77,0.00,,---,0.00,VWS V14.00,2013-07-16 14:09:00,
2013-07-16 10:15:00,83.5,75.5,29.17,West,270,0.0,0.0,77,0.00,,---,0.00,VWS V14.00,2013-07-16 14:15:00,
2013-07-16 10:21:00,83.8,75.5,29.17,West,270,0.0,2.2,76,0.00,,---,0.00,VWS V14.00,2013-07-16 14:21:00,
2013-07-16 10:27:00,84.0,75.6,29.17,SE,135,0.0,2.2,76,0.00,,---,0.00,VWS V14.00,2013-07-16 14:27:00,
2013-07-16 10:33:00,84.4,75.6,29.17,SSE,158,0.0,2.2,75,0.00,,---,0.00,VWS V14.00,2013-07-16 14:33:00,
2013-07-16 10:39:00,84.7,75.5,29.17,SSW,202,0.0,2.2,74,0.00,,---,0.00,VWS V14.00,2013-07-16 14:39:00,
2013-07-16 10:45:00,85.1,76.3,29.17,WSW,248,0.0,2.2,75,0.00,,---,0.00,VWS V14.00,2013-07-16 14:45:00,
2013-07-16 10:51:00,85.3,76.5,29.17,ESE,112,0.0,2.2,75,0.00,,---,0.00,VWS V14.00,2013-07-16 14:51:00,
2013-07-16 10:57:00,85.5,76.2,29.17,SE,135,0.0,2.2,74,0.00,,---,0.00,VWS V14.00,2013-07-16 14:57:00,
2013-07-16 11:03:00,85.6,76.4,29.17,East,90,0.0,0.0,74,0.00,,---,0.00,VWS V14.00,2013-07-16 15:03:00,
2013-07-16 11:09:00,86.0,76.3,29.17,NNW,338,0.0,0.0,73,0.00,,---,0.00,VWS V14.00,2013-07-16 15:09:00,
2013-07-16 11:15:00,86.4,75.8,29.17,West,270,0.0,0.0,71,0.00,,---,0.00,VWS V14.00,2013-07-16 15:15:00,
2013-07-16 11:21:00,86.5,76.0,29.17,West,270,0.0,0.0,71,0.00,,---,0.00,VWS V14.00,2013-07-16 15:21:00,
2013-07-16 11:27:00,86.2,74.4,29.17,SSW,202,1.3,1.3,68,0.00,,---,0.00,VWS V14.00,2013-07-16 15:27:00,
2013-07-16 11:33:00,86.5,75.2,29.17,East,90,0.0,1.3,69,0.00,,---,0.00,VWS V14.00,2013-07-16 15:33:00,
2013-07-16 11:39:00,87.1,75.7,29.17,ENE,68,0.0,1.3,69,0.00,,---,0.00,VWS V14.00,2013-07-16 15:39:00,
2013-07-16 11:45:00,87.1,75.2,29.17,NE,45,0.0,1.3,68,0.00,,---,0.00,VWS V14.00,2013-07-16 15:45:00,
2013-07-16 11:51:00,87.3,75.4,29.17,West,270,0.0,1.6,68,0.00,,---,0.00,VWS V14.00,2013-07-16 15:51:00,
2013-07-16 11:57:00,87.4,75.6,29.17,SE,135,0.0,2.7,68,0.00,,---,0.00,VWS V14.00,2013-07-16 15:57:00,
2013-07-16 12:03:00,87.1,75.2,29.17,ENE,68,0.0,1.3,68,0.00,,---,0.00,VWS V14.00,2013-07-16 16:03:00,
2013-07-16 12:09:00,87.3,75.4,29.17,North,0,0.0,1.3,68,0.00,,---,0.00,VWS V14.00,2013-07-16 16:09:00,
2013-07-16 12:15:00,87.3,74.5,29.17,North,0,0.0,1.3,66,0.00,,---,0.00,VWS V14.00,2013-07-16 16:15:00,
2013-07-16 12:21:00,87.3,74.5,29.17,West,270,0.9,2.9,66,0.00,,---,0.00,VWS V14.00,2013-07-16 16:21:00,
2013-07-16 12:27:00,87.6,74.9,29.17,SW,225,0.0,2.9,66,0.00,,---,0.00,VWS V14.00,2013-07-16 16:27:00,
2013-07-16 12:33:00,88.2,75.4,29.17,West,270,1.1,2.9,66,0.00,,---,0.00,VWS V14.00,2013-07-16 16:33:00,
2013-07-16 12:39:00,88.3,75.1,29.17,West,270,0.0,2.9,65,0.00,,---,0.00,VWS V14.00,2013-07-16 16:39:00,
2013-07-16 12:45:00,88.3,75.1,29.17,South,180,0.9,2.9,65,0.00,,---,0.00,VWS V14.00,2013-07-16 16:45:00,
2013-07-16 12:51:00,88.5,75.3,29.17,SE,135,0.0,2.9,65,0.00,,---,0.00,VWS V14.00,2013-07-16 16:51:00,
2013-07-16 12:57:00,88.7,75.4,29.17,SW,225,0.0,2.9,65,0.00,,---,0.00,VWS V14.00,2013-07-16 16:57:00,
2013-07-16 13:03:00,88.7,75.4,29.17,WSW,248,0.9,1.3,65,0.00,,---,0.00,VWS V14.00,2013-07-16 17:03:00,
2013-07-16 13:09:00,89.1,76.2,29.17,NNW,338,1.6,3.4,66,0.00,,---,0.00,VWS V14.00,2013-07-16 17:09:00,
2013-07-16 13:15:00,89.2,75.9,29.17,South,180,0.0,3.4,65,0.00,,---,0.00,VWS V14.00,2013-07-16 17:15:00,
2013-07-16 13:21:00,89.2,76.4,29.17,WSW,248,0.9,3.4,66,0.00,,---,0.00,VWS V14.00,2013-07-16 17:21:00,
2013-07-16 13:27:00,89.4,76.1,29.17,East,90,0.0,3.4,65,0.00,,---,0.00,VWS V14.00,2013-07-16 17:27:00,
2013-07-16 13:33:00,89.6,76.3,29.17,ESE,112,1.1,3.4,65,0.00,,---,0.00,VWS V14.00,2013-07-16 17:33:00,
2013-07-16 13:39:00,89.6,76.3,29.17,ESE,112,0.0,3.4,65,0.00,,---,0.00,VWS V14.00,2013-07-16 17:39:00,
2013-07-16 13:45:00,89.4,76.1,29.17,West,270,0.0,3.4,65,0.00,,---,0.00,VWS V14.00,2013-07-16 17:45:00,
2013-07-16 13:51:00,89.4,76.1,29.14,South,180,2.5,3.4,65,0.00,,---,0.00,VWS V14.00,2013-07-16 17:51:00,
2013-07-16 13:58:00,89.4,76.1,29.14,NE,45,0.0,3.4,65,0.00,,---,0.00,VWS V14.00,2013-07-16 17:58:00,
2013-07-16 14:04:00,89.2,75.9,29.14,SE,135,2.9,2.9,65,0.00,,---,0.00,VWS V14.00,2013-07-16 18:04:00,
2013-07-16 14:10:00,89.2,75.9,29.14,SE,135,0.0,2.9,65,0.00,,---,0.00,VWS V14.00,2013-07-16 18:10:00,
2013-07-16 14:16:00,89.2,75.9,29.14,WSW,248,0.0,3.1,65,0.00,,---,0.00,VWS V14.00,2013-07-16 18:16:00,
2013-07-16 14:22:00,89.4,75.6,29.14,ENE,68,0.0,3.1,64,0.00,,---,0.00,VWS V14.00,2013-07-16 18:22:00,
2013-07-16 14:28:00,89.4,75.6,29.14,East,90,1.3,3.1,64,0.00,,---,0.00,VWS V14.00,2013-07-16 18:28:00,
2013-07-16 14:34:00,89.4,75.6,29.14,NNW,338,2.0,3.1,64,0.00,,---,0.00,VWS V14.00,2013-07-16 18:34:00,
2013-07-16 14:40:00,89.6,75.8,29.14,SW,225,0.0,3.1,64,0.00,,---,0.00,VWS V14.00,2013-07-16 18:40:00,
2013-07-16 14:46:00,89.6,75.8,29.14,ESE,112,0.0,3.1,64,0.00,,---,0.00,VWS V14.00,2013-07-16 18:46:00,
2013-07-16 14:52:00,89.6,75.8,29.14,WSW,248,1.6,3.1,64,0.00,,---,0.00,VWS V14.00,2013-07-16 18:52:00,
2013-07-16 14:58:00,89.6,75.8,29.14,NE,45,1.3,3.1,64,0.00,,---,0.00,VWS V14.00,2013-07-16 18:58:00,
2013-07-16 15:04:00,89.6,75.8,29.14,NE,45,0.0,1.6,64,0.00,,---,0.00,VWS V14.00,2013-07-16 19:04:00,
2013-07-16 15:10:00,89.6,75.8,29.14,NE,45,0.0,1.6,64,0.00,,---,0.00,VWS V14.00,2013-07-16 19:10:00,
2013-07-16 15:16:00,89.8,76.0,29.14,East,90,0.0,1.6,64,0.00,,---,0.00,VWS V14.00,2013-07-16 19:16:00,
2013-07-16 15:22:00,89.6,75.8,29.14,WNW,292,0.0,1.6,64,0.00,,---,0.00,VWS V14.00,2013-07-16 19:22:00,
2013-07-16 15:28:00,89.6,75.8,29.14,SE,135,1.1,1.6,64,0.00,,---,0.00,VWS V14.00,2013-07-16 19:28:00,
2013-07-16 15:34:00,90.0,76.2,29.12,WSW,248,0.0,1.6,64,0.00,,---,0.00,VWS V14.00,2013-07-16 19:34:00,
2013-07-16 15:40:00,89.6,75.3,29.12,SW,225,0.9,1.6,63,0.00,,---,0.00,VWS V14.00,2013-07-16 19:40:00,
2013-07-16 15:46:00,89.6,75.3,29.12,NE,45,0.0,2.7,63,0.00,,---,0.00,VWS V14.00,2013-07-16 19:46:00,
2013-07-16 15:52:00,89.6,75.8,29.12,SE,135,0.0,3.1,64,0.00,,---,0.00,VWS V14.00,2013-07-16 19:52:00,
2013-07-16 15:58:00,89.6,75.3,29.12,NE,45,0.0,3.1,63,0.00,,---,0.00,VWS V14.00,2013-07-16 19:58:00,
2013-07-16 16:04:00,89.6,75.8,29.12,SW,225,0.0,0.0,64,0.00,,---,0.00,VWS V14.00,2013-07-16 20:04:00,
2013-07-16 16:10:00,89.8,76.0,29.12,West,270,0.0,2.7,64,0.00,,---,0.00,VWS V14.00,2013-07-16 20:10:00,
2013-07-16 16:16:00,89.6,75.3,29.12,NW,315,0.0,2.7,63,0.00,,---,0.00,VWS V14.00,2013-07-16 20:16:00,
2013-07-16 16:22:00,89.6,75.3,29.12,South,180,0.9,4.0,63,0.00,,---,0.00,VWS V14.00,2013-07-16 20:22:00,
2013-07-16 16:28:00,89.6,75.3,29.12,NW,315,0.0,4.0,63,0.00,,---,0.00,VWS V14.00,2013-07-16 20:28:00,
2013-07-16 16:34:00,89.4,75.2,29.12,East,90,0.0,4.0,63,0.00,,---,0.00,VWS V14.00,2013-07-16 20:34:00,
2013-07-16 16:40:00,89.4,75.2,29.12,West,270,2.7,4.0,63,0.00,,---,0.00,VWS V14.00,2013-07-16 20:40:00,
2013-07-16 16:46:00,89.2,75.5,29.12,ENE,68,0.0,4.0,64,0.00,,---,0.00,VWS V14.00,2013-07-16 20:46:00,
2013-07-16 16:52:00,89.2,75.0,29.12,South,180,0.0,4.0,63,0.00,,---,0.00,VWS V14.00,2013-07-16 20:52:00,
2013-07-16 16:58:00,89.2,75.0,29.12,West,270,0.0,4.0,63,0.00,,---,0.00,VWS V14.00,2013-07-16 20:58:00,
2013-07-16 17:04:00,89.2,75.0,29.12,NE,45,0.0,0.0,63,0.00,,---,0.00,VWS V14.00,2013-07-16 21:04:00,
2013-07-16 17:10:00,89.2,75.0,29.12,ENE,68,0.0,0.0,63,0.00,,---,0.00,VWS V14.00,2013-07-16 21:10:00,
2013-07-16 17:16:00,89.2,75.0,29.12,West,270,0.0,1.6,63,0.00,,---,0.00,VWS V14.00,2013-07-16 21:16:00,
2013-07-16 17:22:00,89.2,75.0,29.12,East,90,0.0,1.6,63,0.00,,---,0.00,VWS V14.00,2013-07-16 21:22:00,
2013-07-16 17:28:00,89.2,75.0,29.12,SW,225,0.0,1.6,63,0.00,,---,0.00,VWS V14.00,2013-07-16 21:28:00,
2013-07-16 17:34:00,88.9,74.7,29.12,SW,225,0.0,1.6,63,0.00,,---,0.00,VWS V14.00,2013-07-16 21:34:00,
2013-07-16 17:40:00,88.9,74.7,29.12,SW,225,0.0,1.6,63,0.00,,---,0.00,VWS V14.00,2013-07-16 21:40:00,
2013-07-16 17:46:00,88.7,75.0,29.12,West,270,0.0,1.6,64,0.00,,---,0.00,VWS V14.00,2013-07-16 21:46:00,
2013-07-16 17:52:00,88.9,74.7,29.12,NNE,22,0.0,1.6,63,0.00,,---,0.00,VWS V14.00,2013-07-16 21:52:00,
2013-07-16 17:58:00,88.7,75.0,29.12,NE,45,0.0,1.6,64,0.00,,---,0.00,VWS V14.00,2013-07-16 21:58:00,
2013-07-16 18:04:00,88.7,75.0,29.09,West,270,0.0,0.0,64,0.00,,---,0.00,VWS V14.00,2013-07-16 22:04:00,
2013-07-16 18:10:00,88.7,75.0,29.09,North,0,0.0,0.9,64,0.00,,---,0.00,VWS V14.00,2013-07-16 22:10:00,
2013-07-16 18:16:00,88.7,75.0,29.09,NE,45,0.0,0.9,64,0.00,,---,0.00,VWS V14.00,2013-07-16 22:16:00,
2013-07-16 18:22:00,88.3,74.6,29.12,West,270,0.0,0.9,64,0.00,,---,0.00,VWS V14.00,2013-07-16 22:22:00,
2013-07-16 18:28:00,88.3,74.6,29.12,WSW,248,2.5,2.5,64,0.00,,---,0.00,VWS V14.00,2013-07-16 22:28:00,
2013-07-16 18:34:00,88.2,74.4,29.09,South,180,0.0,2.5,64,0.00,,---,0.00,VWS V14.00,2013-07-16 22:34:00,
2013-07-16 18:40:00,88.2,74.4,29.09,WSW,248,0.0,2.5,64,0.00,,---,0.00,VWS V14.00,2013-07-16 22:40:00,
2013-07-16 18:46:00,88.0,74.3,29.09,West,270,0.0,2.5,64,0.00,,---,0.00,VWS V14.00,2013-07-16 22:46:00,
2013-07-16 18:52:00,87.8,74.1,29.09,North,0,0.0,2.5,64,0.00,,---,0.00,VWS V14.00,2013-07-16 22:52:00,
2013-07-16 18:59:00,87.8,74.6,29.09,WSW,248,0.0,2.5,65,0.00,,---,0.00,VWS V14.00,2013-07-16 22:59:00,
2013-07-16 19:05:00,87.6,74.9,29.09,WNW,292,0.0,0.0,66,0.00,,---,0.00,VWS V14.00,2013-07-16 23:05:00,
2013-07-16 19:11:00,87.4,75.1,29.09,NNW,338,0.0,0.0,67,0.00,,---,0.00,VWS V14.00,2013-07-16 23:11:00,
2013-07-16 19:17:00,87.3,75.0,29.09,SW,225,0.0,0.0,67,0.00,,---,0.00,VWS V14.00,2013-07-16 23:17:00,
2013-07-16 19:23:00,87.1,74.8,29.12,South,180,0.0,1.6,67,0.00,,---,0.00,VWS V14.00,2013-07-16 23:23:00,
2013-07-16 19:29:00,87.1,74.8,29.12,South,180,0.0,1.6,67,0.00,,---,0.00,VWS V14.00,2013-07-16 23:29:00,
2013-07-16 19:35:00,86.7,74.9,29.12,South,180,0.0,1.6,68,0.00,,---,0.00,VWS V14.00,2013-07-16 23:35:00,
2013-07-16 19:41:00,86.4,74.6,29.12,South,180,0.0,1.6,68,0.00,,---,0.00,VWS V14.00,2013-07-16 23:41:00,
2013-07-16 19:47:00,86.2,74.8,29.12,South,180,0.0,1.6,69,0.00,,---,0.00,VWS V14.00,2013-07-16 23:47:00,
2013-07-16 19:53:00,86.0,75.5,29.12,South,180,0.0,1.6,71,0.00,,---,0.00,VWS V14.00,2013-07-16 23:53:00,
2013-07-16 19:59:00,85.6,75.2,29.12,South,180,0.0,1.6,71,0.00,,---,0.00,VWS V14.00,2013-07-16 23:59:00,
2013-07-16 20:05:00,85.5,75.4,29.12,South,180,0.0,0.0,72,0.00,,---,0.00,VWS V14.00,2013-07-17 00:05:00,
2013-07-16 20:11:00,84.9,75.3,29.12,South,180,0.0,0.0,73,0.00,,---,0.00,VWS V14.00,2013-07-17 00:11:00,
2013-07-16 20:17:00,84.4,74.8,29.12,South,180,0.0,0.0,73,0.00,,---,0.00,VWS V14.00,2013-07-17 00:17:00,
2013-07-16 20:23:00,84.4,74.8,29.12,South,180,0.0,0.0,73,0.00,,---,0.00,VWS V14.00,2013-07-17 00:23:00,
2013-07-16 20:29:00,84.0,74.8,29.12,South,180,0.0,0.0,74,0.00,,---,0.00,VWS V14.00,2013-07-17 00:29:00,
2013-07-16 20:35:00,83.7,74.5,29.12,South,180,0.0,0.0,74,0.00,,---,0.00,VWS V14.00,2013-07-17 00:35:00,
2013-07-16 20:41:00,83.3,74.6,29.12,South,180,0.0,0.0,75,0.00,,---,0.00,VWS V14.00,2013-07-17 00:41:00,
2013-07-16 20:47:00,82.9,74.2,29.12,South,180,0.0,0.0,75,0.00,,---,0.00,VWS V14.00,2013-07-17 00:47:00,
2013-07-16 20:53:00,82.6,73.9,29.12,South,180,0.0,0.0,75,0.00,,---,0.00,VWS V14.00,2013-07-17 00:53:00,
2013-07-16 20:59:00,82.0,73.7,29.12,South,180,0.0,0.0,76,0.00,,---,0.00,VWS V14.00,2013-07-17 00:59:00,
2013-07-16 21:05:00,81.9,73.6,29.12,South,180,0.0,0.0,76,0.00,,---,0.00,VWS V14.00,2013-07-17 01:05:00,
2013-07-16 21:11:00,81.7,73.4,29.12,South,180,0.0,0.0,76,0.00,,---,0.00,VWS V14.00,2013-07-17 01:11:00,
2013-07-16 21:17:00,81.5,73.2,29.12,South,180,0.0,0.0,76,0.00,,---,0.00,VWS V14.00,2013-07-17 01:17:00,
2013-07-16 21:23:00,81.1,73.2,29.12,South,180,0.0,0.0,77,0.00,,---,0.00,VWS V14.00,2013-07-17 01:23:00,
2013-07-16 21:29:00,81.0,73.1,29.12,South,180,0.0,0.0,77,0.00,,---,0.00,VWS V14.00,2013-07-17 01:29:00,
2013-07-16 21:35:00,81.0,73.1,29.12,South,180,0.0,0.0,77,0.00,,---,0.00,VWS V14.00,2013-07-17 01:35:00,
2013-07-16 21:41:00,80.4,72.9,29.12,South,180,0.0,0.0,78,0.00,,---,0.00,VWS V14.00,2013-07-17 01:41:00,
2013-07-16 21:47:00,80.4,72.9,29.12,South,180,0.0,0.0,78,0.00,,---,0.00,VWS V14.00,2013-07-17 01:47:00,
2013-07-16 21:53:00,80.2,72.8,29.12,South,180,0.0,0.0,78,0.00,,---,0.00,VWS V14.00,2013-07-17 01:53:00,
2013-07-16 21:59:00,79.9,72.4,29.12,South,180,0.0,0.0,78,0.00,,---,0.00,VWS V14.00,2013-07-17 01:59:00,
2013-07-16 22:05:00,79.9,72.4,29.12,South,180,0.0,0.0,78,0.00,,---,0.00,VWS V14.00,2013-07-17 02:05:00,
2013-07-16 22:11:00,79.7,72.2,29.12,South,180,0.0,0.0,78,0.00,,---,0.00,VWS V14.00,2013-07-17 02:11:00,
2013-07-16 22:17:00,79.3,71.9,29.14,South,180,0.0,0.0,78,0.00,,---,0.00,VWS V14.00,2013-07-17 02:17:00,
2013-07-16 22:23:00,79.2,72.1,29.14,South,180,0.0,0.0,79,0.00,,---,0.00,VWS V14.00,2013-07-17 02:23:00,
2013-07-16 22:29:00,79.0,71.9,29.14,South,180,0.0,0.0,79,0.00,,---,0.00,VWS V14.00,2013-07-17 02:29:00,
2013-07-16 22:35:00,79.0,71.9,29.14,South,180,0.0,0.0,79,0.00,,---,0.00,VWS V14.00,2013-07-17 02:35:00,
2013-07-16 22:41:00,78.6,71.6,29.14,South,180,0.0,0.0,79,0.00,,---,0.00,VWS V14.00,2013-07-17 02:41:00,
2013-07-16 22:47:00,78.6,71.9,29.14,South,180,0.0,0.0,80,0.00,,---,0.00,VWS V14.00,2013-07-17 02:47:00,
2013-07-16 22:53:00,78.4,71.8,29.14,South,180,0.0,0.0,80,0.00,,---,0.00,VWS V14.00,2013-07-17 02:53:00,
2013-07-16 22:59:00,78.3,71.6,29.14,South,180,0.0,0.0,80,0.00,,---,0.00,VWS V14.00,2013-07-17 02:59:00,
2013-07-16 23:05:00,78.1,71.4,29.14,South,180,0.0,0.0,80,0.00,,---,0.00,VWS V14.00,2013-07-17 03:05:00,
2013-07-16 23:11:00,77.9,71.2,29.14,South,180,0.0,0.0,80,0.00,,---,0.00,VWS V14.00,2013-07-17 03:11:00,
2013-07-16 23:17:00,77.9,71.2,29.14,South,180,0.0,0.0,80,0.00,,---,0.00,VWS V14.00,2013-07-17 03:17:00,
2013-07-16 23:23:00,77.7,71.1,29.14,South,180,0.0,0.0,80,0.00,,---,0.00,VWS V14.00,2013-07-17 03:23:00,
2013-07-16 23:29:00,77.5,70.9,29.14,South,180,0.0,0.0,80,0.00,,---,0.00,VWS V14.00,2013-07-17 03:29:00,
2013-07-16 23:35:00,77.4,71.1,29.14,South,180,0.0,0.0,81,0.00,,---,0.00,VWS V14.00,2013-07-17 03:35:00,
2013-07-16 23:41:00,77.2,70.9,29.14,South,180,0.0,0.0,81,0.00,,---,0.00,VWS V14.00,2013-07-17 03:41:00,
2013-07-16 23:47:00,77.2,70.9,29.14,South,180,0.0,0.0,81,0.00,,---,0.00,VWS V14.00,2013-07-17 03:47:00,
2013-07-16 23:54:00,77.0,70.7,29.14,South,180,0.0,0.0,81,0.00,,---,0.00,VWS V14.00,2013-07-17 03:54:00,